Time;durP1;ratioP1;P1;durP2;ratioP2;P2;SDS_P1;SDS_P2;PMS_P1;PMS_P2;Temp;Humidity;BMP_temperature;BMP_pressure;BME280_temperature;BME280_humidity;BME280_pressure;Samples;Min_cycle;Max_cycle;Signal;HPM_P1;HPM_P2
2022/05/03 00:02:15;;;;;;;31.05;22.02;;;;;;;11.83;53.56;102070.09;5172893;28;20808;-47
2022/05/03 00:05:02;;;;;;;30.08;23.77;;;;;;;11.73;53.48;102065.56;5168376;28;20512;-50
2022/05/03 00:07:44;;;;;;;31.95;23.52;;;;;;;11.76;53.70;102101.53;5166176;28;20423;-48
2022/05/03 00:10:25;;;;;;;29.13;23.42;;;;;;;11.76;53.79;102075.91;5140768;28;20914;-49
2022/05/03 00:13:06;;;;;;;32.53;23.90;;;;;;;11.70;53.88;102073.75;5170053;28;20576;-46
2022/05/03 00:15:43;;;;;;;30.58;23.73;;;;;;;11.73;54.05;102062.94;5174779;28;20558;-46
2022/05/03 00:18:16;;;;;;;32.97;24.48;;;;;;;11.63;53.95;102061.19;5166939;28;20836;-46
2022/05/03 00:20:51;;;;;;;32.58;24.58;;;;;;;11.69;54.03;102068.63;5170951;28;20552;-46
2022/05/03 00:23:25;;;;;;;31.42;22.80;;;;;;;11.63;54.03;102062.00;5170044;28;20572;-48
2022/05/03 00:25:58;;;;;;;30.87;24.60;;;;;;;11.45;54.21;102031.78;5175253;28;21267;-47
2022/05/03 00:28:34;;;;;;;32.70;24.15;;;;;;;11.62;54.31;102068.28;5173097;28;20404;-46
2022/05/03 00:31:08;;;;;;;29.90;23.23;;;;;;;11.56;54.33;102062.66;5174956;28;20498;-48
2022/05/03 00:33:42;;;;;;;33.00;23.67;;;;;;;11.47;54.49;102049.22;5171642;28;20424;-45
2022/05/03 00:36:15;;;;;;;31.35;23.90;;;;;;;11.54;54.44;102066.25;5172500;28;20410;-46
2022/05/03 00:38:48;;;;;;;32.55;24.10;;;;;;;11.48;54.53;102056.16;5170365;28;20452;-47
2022/05/03 00:41:34;;;;;;;30.88;23.67;;;;;;;11.49;54.63;102063.16;5170936;28;20436;-48
2022/05/03 00:47:19;;;;;;;32.35;24.77;;;;;;;11.38;54.68;102062.34;5163332;28;20404;-47
2022/05/03 00:50:05;;;;;;;34.75;25.70;;;;;;;11.29;54.84;102062.13;5172304;28;20549;-46
2022/05/03 00:52:46;;;;;;;35.28;26.35;;;;;;;11.32;54.89;102063.69;5166495;28;20420;-46
2022/05/03 00:55:46;;;;;;;31.73;23.92;;;;;;;11.18;55.05;102046.31;5170301;28;20448;-46
2022/05/03 00:58:38;;;;;;;34.77;25.10;;;;;;;10.81;55.06;101992.94;5172225;28;20529;-46
2022/05/03 01:01:25;;;;;;;30.17;23.42;;;;;;;11.15;55.23;102057.13;5170262;28;20415;-44
2022/05/03 01:04:11;;;;;;;39.38;25.45;;;;;;;11.03;55.16;102037.81;5171789;28;20439;-46
2022/05/03 01:07:01;;;;;;;34.78;25.38;;;;;;;11.07;55.29;102057.72;5168889;28;20479;-45
2022/05/03 01:09:40;;;;;;;34.42;26.50;;;;;;;10.94;55.20;102035.91;5168333;28;20409;-49
2022/05/03 01:12:27;;;;;;;34.42;25.83;;;;;;;10.98;55.39;102053.19;5172878;28;20807;-45
2022/05/03 01:15:10;;;;;;;35.80;25.63;;;;;;;11.00;55.39;102053.06;5174521;28;25852;-45
2022/05/03 01:17:48;;;;;;;35.35;25.83;;;;;;;10.90;55.38;102050.34;5169737;28;20431;-47
2022/05/03 01:20:31;;;;;;;36.75;26.27;;;;;;;10.96;55.64;102065.69;5171920;28;20462;-49
2022/05/03 01:23:44;;;;;;;33.05;25.02;;;;;;;10.93;55.65;102065.94;5175894;28;20413;-49
2022/05/03 01:27:23;;;;;;;36.97;26.27;;;;;;;10.88;55.69;102062.81;5151560;28;20419;-46
2022/05/03 01:30:00;;;;;;;38.22;25.83;;;;;;;10.83;55.72;102064.97;5119533;28;20956;-46
2022/05/03 01:32:34;;;;;;;33.47;25.88;;;;;;;10.81;55.80;102072.19;5123601;28;20439;-46
2022/05/03 01:35:08;;;;;;;35.73;26.17;;;;;;;10.71;55.92;102056.19;5159387;28;20727;-46
2022/05/03 01:38:19;;;;;;;38.47;28.92;;;;;;;10.72;55.96;102072.94;5170386;28;20440;-49
2022/05/03 01:41:11;;;;;;;36.75;26.77;;;;;;;10.72;56.11;102071.13;5159326;28;20490;-48
2022/05/03 01:44:10;;;;;;;33.97;26.88;;;;;;;10.58;56.09;102053.69;5170783;28;20415;-47
2022/05/03 01:46:44;;;;;;;36.42;27.13;;;;;;;10.66;56.22;102081.34;5173370;28;20442;-48
2022/05/03 01:53:00;;;;;;;35.45;27.27;;;;;;;10.59;56.31;102067.72;5166928;28;20416;-49
2022/05/03 01:56:05;;;;;;;33.08;26.27;;;;;;;10.47;56.36;102066.91;5179969;28;20491;-48
2022/05/03 01:58:49;;;;;;;36.30;26.07;;;;;;;10.52;56.41;102056.81;5166778;28;20475;-51
2022/05/03 02:01:37;;;;;;;34.47;25.50;;;;;;;10.42;56.43;102042.66;5170115;28;20429;-47
2022/05/03 02:04:41;;;;;;;35.58;26.70;;;;;;;10.45;56.52;102054.78;5171241;28;20567;-44
2022/05/03 02:07:25;;;;;;;35.38;26.23;;;;;;;10.45;56.67;102054.78;5170831;28;20550;-46
2022/05/03 02:10:11;;;;;;;35.10;25.77;;;;;;;10.34;56.54;102050.31;5172488;28;20927;-46
2022/05/03 02:12:53;;;;;;;36.80;25.98;;;;;;;10.34;56.65;102050.31;5173100;28;20435;-47
2022/05/03 02:15:38;;;;;;;34.33;25.73;;;;;;;10.32;56.62;102046.97;5171940;28;20558;-46
2022/05/03 02:18:22;;;;;;;33.70;26.13;;;;;;;10.31;56.64;102047.91;5171418;28;20438;-42
2022/05/03 02:21:16;;;;;;;38.50;28.08;;;;;;;10.29;56.79;102055.13;5171599;28;20436;-46
2022/05/03 02:23:59;;;;;;;37.42;27.15;;;;;;;10.16;56.95;102037.56;5171513;28;20427;-45
2022/05/03 02:26:44;;;;;;;37.97;29.23;;;;;;;10.20;56.92;102045.25;5176371;28;20422;-45
2022/05/03 02:29:19;;;;;;;35.67;26.95;;;;;;;10.19;56.92;102048.81;5174640;28;20411;-45
2022/05/03 02:32:00;;;;;;;41.72;29.63;;;;;;;10.21;56.94;102052.19;5173419;28;20434;-45
2022/05/03 02:34:50;;;;;;;39.67;28.30;;;;;;;10.06;57.14;102028.63;5175222;28;20419;-46
2022/05/03 02:37:29;;;;;;;39.33;28.57;;;;;;;10.13;57.13;102040.44;5170408;28;20432;-45
2022/05/03 02:40:04;;;;;;;36.42;28.17;;;;;;;10.06;57.15;102036.56;5170628;28;20409;-47
2022/05/03 02:42:36;;;;;;;39.80;28.73;;;;;;;10.08;57.30;102047.84;5169190;28;20500;-45
2022/05/03 02:45:10;;;;;;;39.42;28.15;;;;;;;10.06;57.44;102048.91;5172818;28;20464;-45
2022/05/03 02:47:51;;;;;;;40.33;29.08;;;;;;;10.05;57.42;102041.97;5171595;28;20427;-48
2022/05/03 02:50:34;;;;;;;38.17;27.73;;;;;;;10.02;57.46;102053.59;5167708;28;20828;-46
2022/05/03 02:53:13;;;;;;;37.40;28.02;;;;;;;9.99;57.49;102032.72;5172922;28;20421;-47
2022/05/03 02:55:54;;;;;;;37.15;27.75;;;;;;;9.91;57.39;102029.84;5171569;28;20944;-46
2022/05/03 02:58:45;;;;;;;38.38;30.70;;;;;;;9.88;57.53;102033.53;5179391;28;20444;-46
2022/05/03 03:04:33;;;;;;;39.42;29.50;;;;;;;9.90;57.53;102043.97;5172953;28;20800;-46
2022/05/03 03:07:06;;;;;;;36.63;28.08;;;;;;;9.28;57.86;101949.28;5175589;28;20550;-48
2022/05/03 03:09:48;;;;;;;36.80;28.77;;;;;;;9.80;57.63;102019.25;5174582;28;20451;-46
2022/05/03 03:12:39;;;;;;;35.05;28.30;;;;;;;9.87;57.78;102039.75;5172980;28;20431;-49
2022/05/03 03:15:15;;;;;;;40.85;29.05;;;;;;;9.81;57.74;102013.00;5170035;28;20489;-47
2022/05/03 03:17:52;;;;;;;39.75;30.50;;;;;;;9.78;57.82;102031.69;5155797;28;20528;-45
2022/05/03 03:20:26;;;;;;;35.53;28.77;;;;;;;9.81;57.93;102028.81;5165265;28;20424;-45
2022/05/03 03:22:59;;;;;;;42.47;29.77;;;;;;;9.76;57.99;102023.06;5171958;28;20511;-46
2022/05/03 03:25:33;;;;;;;41.42;29.92;;;;;;;9.82;58.10;102030.53;5175281;28;20750;-45
2022/05/03 03:28:10;;;;;;;47.50;31.85;;;;;;;9.81;58.11;102034.09;5175456;28;20895;-49
2022/05/03 03:30:44;;;;;;;44.38;31.42;;;;;;;9.80;58.12;102037.72;5173681;28;20492;-50
2022/05/03 03:33:19;;;;;;;40.38;29.60;;;;;;;9.56;58.22;102001.66;5173865;28;20433;-47
2022/05/03 03:35:52;;;;;;;39.90;30.53;;;;;;;9.77;58.08;102028.22;5172058;28;20435;-49
2022/05/03 03:38:36;;;;;;;43.40;30.05;;;;;;;9.80;58.10;102029.78;5176320;28;21181;-45
2022/05/03 03:41:10;;;;;;;41.67;30.60;;;;;;;9.52;58.16;101997.56;5173132;28;20602;-46
2022/05/03 03:43:43;;;;;;;43.00;30.33;;;;;;;9.73;58.28;102036.50;5171626;28;20437;-47
2022/05/03 03:46:15;;;;;;;39.42;29.90;;;;;;;9.76;58.32;102036.25;5172660;28;20496;-48
2022/05/03 03:48:48;;;;;;;41.53;30.77;;;;;;;9.79;58.18;102041.31;5172880;28;20919;-46
2022/05/03 03:51:20;;;;;;;42.47;30.95;;;;;;;9.82;58.24;102041.09;5173422;28;20925;-46
2022/05/03 03:53:54;;;;;;;47.53;31.63;;;;;;;9.84;58.56;102039.97;5163104;28;20925;-45
2022/05/03 03:56:28;;;;;;;45.30;31.83;;;;;;;9.86;58.41;102038.09;5172848;28;20483;-45
2022/05/03 03:59:02;;;;;;;43.67;31.65;;;;;;;9.87;58.51;102023.09;5168110;28;20899;-46
2022/05/03 04:01:35;;;;;;;43.60;32.40;;;;;;;9.95;58.53;102026.00;5174166;28;20414;-50
2022/05/03 04:04:09;;;;;;;42.25;30.85;;;;;;;9.99;58.52;102032.72;5174100;28;20419;-47
2022/05/03 04:06:41;;;;;;;40.83;30.23;;;;;;;9.98;58.66;102022.28;5172219;28;20434;-50
2022/05/03 04:09:14;;;;;;;39.70;29.35;;;;;;;10.09;58.62;102031.03;5173902;28;20474;-47
2022/05/03 04:11:49;;;;;;;46.92;31.73;;;;;;;10.06;58.71;102023.34;5174116;28;20927;-47
2022/05/03 04:14:22;;;;;;;40.65;30.77;;;;;;;10.20;58.79;102040.78;5174075;28;20916;-48
2022/05/03 04:16:54;;;;;;;45.50;32.25;;;;;;;10.27;58.71;102035.91;5169699;28;20448;-47
2022/05/03 04:19:28;;;;;;;43.47;32.05;;;;;;;10.32;58.72;102039.06;5168259;28;20424;-45
2022/05/03 04:22:12;;;;;;;44.97;33.58;;;;;;;10.36;58.69;102035.19;5174737;28;20427;-47
2022/05/03 04:24:45;;;;;;;40.58;31.15;;;;;;;10.44;58.73;102032.81;5169208;28;20906;-50
2022/05/03 04:27:19;;;;;;;41.63;31.88;;;;;;;10.42;58.85;102029.44;5175181;28;20581;-45
2022/05/03 04:29:53;;;;;;;42.38;33.80;;;;;;;10.48;58.73;102018.41;5175419;28;20430;-50
2022/05/03 04:32:28;;;;;;;47.33;33.88;;;;;;;10.59;58.82;102034.25;5165711;28;20844;-48
2022/05/03 04:35:00;;;;;;;45.42;35.33;;;;;;;10.65;58.84;102030.25;5168970;28;20433;-45
2022/05/03 04:37:33;;;;;;;51.33;38.13;;;;;;;10.67;58.94;102027.53;5166273;28;20432;-46
2022/05/03 04:40:07;;;;;;;56.85;41.47;;;;;;;10.74;59.03;102031.34;5172652;28;20623;-49
2022/05/03 04:42:41;;;;;;;59.63;42.83;;;;;;;10.80;58.84;102029.06;5176603;28;20415;-47
2022/05/03 04:45:13;;;;;;;64.13;43.50;;;;;;;10.91;59.12;102035.31;5183665;28;20423;-49
2022/05/03 04:47:46;;;;;;;64.75;42.92;;;;;;;10.91;59.03;102030.03;5181250;28;20903;-47
2022/05/03 04:50:18;;;;;;;57.50;42.40;;;;;;;10.98;59.39;102018.81;5182936;28;20429;-45
2022/05/03 04:52:51;;;;;;;57.43;42.47;;;;;;;11.06;59.17;102029.63;5171585;28;20503;-49
2022/05/03 04:55:24;;;;;;;64.90;45.47;;;;;;;11.12;59.27;102023.00;5183102;28;20774;-51
2022/05/03 04:57:58;;;;;;;60.78;46.05;;;;;;;11.24;59.27;102026.44;5188519;28;20895;-49
2022/05/03 05:00:31;;;;;;;61.70;44.97;;;;;;;11.35;59.18;102029.06;5180801;28;20496;-50
2022/05/03 05:03:03;;;;;;;59.13;44.33;;;;;;;11.44;59.34;102033.59;5176593;28;20486;-49
2022/05/03 05:05:36;;;;;;;57.70;43.92;;;;;;;11.48;59.32;102035.00;5185310;28;20421;-51
2022/05/03 05:08:09;;;;;;;64.05;45.63;;;;;;;11.35;59.29;102002.59;5164712;28;20500;-50
2022/05/03 05:10:42;;;;;;;62.03;45.88;;;;;;;11.64;59.47;102033.75;5198824;28;20529;-48
2022/05/03 05:13:16;;;;;;;60.38;45.90;;;;;;;11.73;59.24;102046.22;5170055;28;20536;-46
2022/05/03 05:15:49;;;;;;;63.53;46.40;;;;;;;11.78;59.46;102041.38;5171095;28;20905;-50
2022/05/03 05:18:22;;;;;;;58.63;44.30;;;;;;;11.88;59.42;102046.78;5169663;28;20422;-50
2022/05/03 05:20:55;;;;;;;58.92;45.75;;;;;;;11.95;59.59;102048.78;5173752;28;20876;-50
2022/05/03 05:23:28;;;;;;;61.47;46.60;;;;;;;12.02;59.55;102054.41;5168474;28;20978;-47
2022/05/03 05:26:02;;;;;;;57.97;44.97;;;;;;;11.99;59.65;102034.31;5179126;28;20412;-51
2022/05/03 05:28:36;;;;;;;58.83;45.55;;;;;;;12.19;59.65;102052.97;5171283;28;20915;-47
2022/05/03 05:31:08;;;;;;;64.00;46.72;;;;;;;12.27;59.69;102050.50;5179339;28;20419;-48
2022/05/03 05:33:41;;;;;;;66.57;45.85;;;;;;;12.37;59.68;102053.22;5180252;28;20419;-49
2022/05/03 05:36:13;;;;;;;63.22;47.60;;;;;;;12.45;59.68;102064.00;5171713;28;20501;-48
2022/05/03 05:38:46;;;;;;;64.53;45.78;;;;;;;12.30;59.59;102010.53;5172293;28;20421;-50
2022/05/03 05:41:55;;;;;;;58.97;43.45;;;;;;;12.65;59.62;102052.50;5178053;28;20481;-51
2022/05/03 05:44:29;;;;;;;63.55;46.05;;;;;;;12.68;59.72;102038.13;5186864;28;20422;-48
2022/05/03 05:47:02;;;;;;;74.90;45.78;;;;;;;12.83;59.62;102044.75;5188513;28;20411;-50
2022/05/03 05:49:34;;;;;;;62.13;44.92;;;;;;;12.91;59.64;102050.22;5187162;28;20481;-51
2022/05/03 05:54:57;;;;;;;69.30;46.20;;;;;;;13.03;59.52;102026.22;5181442;28;20711;-50
2022/05/03 05:57:30;;;;;;;67.05;47.20;;;;;;;13.23;59.53;102035.91;5188022;28;20931;-51
2022/05/03 06:00:05;;;;;;;65.78;44.45;;;;;;;13.35;59.58;102040.13;5188349;28;20477;-51
2022/05/03 06:02:38;;;;;;;61.08;44.17;;;;;;;13.44;59.44;102042.91;5188565;28;20423;-52
2022/05/03 06:05:10;;;;;;;65.18;44.65;;;;;;;13.52;59.45;102040.41;5173530;28;20427;-43
2022/05/03 06:07:43;;;;;;;65.22;45.13;;;;;;;13.59;59.62;102046.84;5194594;28;20425;-51
2022/05/03 06:10:15;;;;;;;65.10;44.80;;;;;;;13.49;59.36;102016.81;5207091;28;20984;-49
2022/05/03 06:12:48;;;;;;;66.53;46.97;;;;;;;13.70;59.31;102048.53;5210328;28;20409;-50
2022/05/03 06:15:22;;;;;;;69.05;46.95;;;;;;;13.79;59.51;102059.13;5206901;28;20434;-51
2022/05/03 06:17:54;;;;;;;71.80;48.38;;;;;;;13.76;59.39;102051.44;5179700;28;20435;-48
2022/05/03 06:20:27;;;;;;;70.75;49.58;;;;;;;13.86;59.33;102058.56;5190652;28;20418;-48
2022/05/03 06:22:59;;;;;;;75.00;48.23;;;;;;;13.92;59.24;102072.13;5202909;28;20930;-49
2022/05/03 06:25:32;;;;;;;79.18;50.83;;;;;;;13.95;59.22;102052.41;5201505;28;20465;-48
2022/05/03 06:28:06;;;;;;;74.32;50.75;;;;;;;14.14;59.09;102068.31;5190193;28;20486;-49
2022/05/03 06:30:41;;;;;;;73.38;51.00;;;;;;;14.23;59.15;102059.47;5166767;28;20413;-53
2022/05/03 06:33:14;;;;;;;74.43;50.87;;;;;;;14.33;59.01;102061.25;5172175;28;20431;-52
2022/05/03 06:35:46;;;;;;;77.77;50.20;;;;;;;14.40;59.00;102049.06;5189130;28;20441;-47
2022/05/03 06:38:19;;;;;;;73.67;48.03;;;;;;;14.62;58.83;102055.91;5189615;28;20510;-50
2022/05/03 06:40:51;;;;;;;73.23;47.23;;;;;;;14.78;58.75;102055.25;5188691;28;20411;-49
2022/05/03 06:43:23;;;;;;;71.65;47.58;;;;;;;14.73;58.38;102031.75;5189011;28;20506;-52
2022/05/03 06:45:57;;;;;;;71.53;48.70;;;;;;;15.00;58.37;102049.53;5188383;28;20507;-52
2022/05/03 06:48:29;;;;;;;72.35;48.35;;;;;;;15.13;58.08;102055.31;5188988;28;20426;-50
2022/05/03 06:51:02;;;;;;;74.63;49.00;;;;;;;15.17;58.07;102055.84;5189215;28;20419;-50
2022/05/03 06:53:36;;;;;;;76.20;47.33;;;;;;;15.17;57.97;102055.84;5182514;28;20427;-50
2022/05/03 06:56:08;;;;;;;74.35;48.28;;;;;;;15.17;57.92;102053.19;5177311;28;20469;-53
2022/05/03 06:58:41;;;;;;;74.38;47.65;;;;;;;15.28;57.90;102063.63;5181201;28;20780;-47
2022/05/03 07:01:16;;;;;;;74.88;47.42;;;;;;;15.30;57.74;102082.97;5176830;28;20411;-49
2022/05/03 07:03:49;;;;;;;74.20;47.03;;;;;;;15.40;57.68;102072.25;5186634;28;20445;-52
2022/05/03 07:06:21;;;;;;;74.60;48.33;;;;;;;15.43;57.64;102071.94;5183113;28;20419;-51
2022/05/03 07:08:53;;;;;;;72.88;46.78;;;;;;;15.43;57.58;102066.63;5168568;28;20513;-52
2022/05/03 07:11:26;;;;;;;83.53;49.35;;;;;;;15.45;57.51;102075.28;5169988;28;20482;-53
2022/05/03 07:13:58;;;;;;;71.45;46.15;;;;;;;15.47;57.17;102104.41;5169737;28;20452;-48
2022/05/03 07:16:32;;;;;;;79.47;48.90;;;;;;;15.47;57.18;102083.94;5165307;28;20436;-48
2022/05/03 07:24:59;;;;;;;79.68;49.47;;;;;;;15.36;56.96;102089.47;5171049;28;20816;-48
2022/05/03 07:27:31;;;;;;;83.85;50.65;;;;;;;15.40;57.12;102082.88;5181590;28;20939;-50
2022/05/03 07:30:05;;;;;;;77.70;47.10;;;;;;;15.42;56.87;102086.22;5188730;28;20887;-52
2022/05/03 07:32:38;;;;;;;75.07;49.17;;;;;;;15.43;56.81;102090.56;5188018;28;20411;-48
2022/05/03 07:35:12;;;;;;;77.40;47.78;;;;;;;15.08;56.84;102062.94;5182879;28;20497;-50
2022/05/03 07:37:45;;;;;;;83.50;51.05;;;;;;;15.30;56.94;102084.75;5184397;28;20430;-53
2022/05/03 07:40:17;;;;;;;90.43;52.77;;;;;;;15.23;56.89;102088.03;5188187;28;20558;-49
2022/05/03 07:42:50;;;;;;;85.00;52.20;;;;;;;15.18;56.83;102090.31;5180805;28;20498;-46
2022/05/03 07:45:22;;;;;;;82.75;52.13;;;;;;;15.16;56.84;102092.28;5188005;28;20422;-51
2022/05/03 07:47:56;;;;;;;84.43;52.55;;;;;;;15.19;56.82;102099.97;5189416;28;20423;-50
2022/05/03 07:50:29;;;;;;;87.47;53.03;;;;;;;15.19;56.74;102097.31;5188838;28;20422;-54
2022/05/03 07:53:01;;;;;;;85.68;53.78;;;;;;;15.25;56.52;102095.88;5187544;28;20422;-51
2022/05/03 07:55:34;;;;;;;88.78;53.28;;;;;;;15.23;56.62;102093.34;5182512;28;20498;-49
2022/05/03 07:58:08;;;;;;;89.53;55.33;;;;;;;15.07;56.55;102071.88;5187425;28;20419;-50
2022/05/03 08:00:40;;;;;;;93.57;55.20;;;;;;;15.27;56.57;102099.22;5186198;28;20499;-50
2022/05/03 08:03:14;;;;;;;93.22;51.63;;;;;;;15.27;56.54;102098.38;5181391;28;20408;-53
2022/05/03 08:05:47;;;;;;;88.93;55.00;;;;;;;15.27;56.67;102101.91;5174211;28;20532;-49
2022/05/03 08:08:19;;;;;;;86.22;50.38;;;;;;;15.20;56.58;102095.47;5183671;28;20434;-49
2022/05/03 08:10:52;;;;;;;85.72;50.20;;;;;;;15.21;56.58;102100.66;5173970;28;20927;-52
2022/05/03 08:13:24;;;;;;;77.68;47.25;;;;;;;15.18;56.57;102095.63;5163230;28;20986;-51
2022/05/03 08:15:59;;;;;;;72.75;45.22;;;;;;;15.15;56.61;102117.22;5169549;28;20477;-50
2022/05/03 08:18:33;;;;;;;76.47;46.40;;;;;;;15.08;56.66;102110.84;5174965;28;20423;-49
2022/05/03 08:21:05;;;;;;;75.13;45.90;;;;;;;15.03;56.61;102102.44;5170835;28;20995;-48
2022/05/03 08:23:38;;;;;;;75.97;45.50;;;;;;;14.92;56.50;102092.81;5175299;28;20430;-50
2022/05/03 08:26:11;;;;;;;79.47;45.38;;;;;;;15.00;56.50;102108.06;5162283;28;20436;-49
2022/05/03 08:28:45;;;;;;;83.38;45.65;;;;;;;15.03;56.67;102113.09;5170634;28;20411;-52
2022/05/03 08:31:17;;;;;;;65.18;37.70;;;;;;;15.04;56.67;102119.25;5182547;28;20418;-50
2022/05/03 08:33:51;;;;;;;44.78;27.25;;;;;;;14.92;56.74;102122.09;5166012;28;20424;-49
2022/05/03 08:36:24;;;;;;;38.15;23.75;;;;;;;14.75;57.11;102107.75;5159467;28;20442;-50
2022/05/03 08:42:07;;;;;;;27.40;16.40;;;;;;;14.50;57.46;102121.66;5160603;28;20425;-51
2022/05/03 08:44:39;;;;;;;20.98;14.50;;;;;;;14.27;57.83;102118.47;5166291;28;20422;-52
2022/05/03 08:47:12;;;;;;;24.25;13.43;;;;;;;14.13;58.02;102119.78;5160762;28;20748;-56
2022/05/03 08:49:59;;;;;;;14.13;11.55;;;;;;;14.14;57.94;102126.75;5161562;28;20418;-53
2022/05/03 08:52:40;;;;;;;16.50;10.73;;;;;;;14.18;57.83;102125.47;5158018;28;20441;-54
2022/05/03 08:55:13;;;;;;;15.40;10.27;;;;;;;14.09;57.84;102091.81;5154530;28;20839;-52
2022/05/03 08:57:46;;;;;;;18.05;11.40;;;;;;;14.29;57.51;102114.69;5155890;28;20481;-47
2022/05/03 09:00:20;;;;;;;21.05;12.40;;;;;;;14.44;57.41;102133.69;5162774;28;20423;-49
2022/05/03 09:02:56;;;;;;;17.60;10.55;;;;;;;14.39;57.55;102130.63;5165075;28;20894;-48
2022/05/03 09:05:30;;;;;;;17.95;11.80;;;;;;;14.44;57.51;102138.19;5166611;28;20813;-49
2022/05/03 09:08:08;;;;;;;19.97;11.70;;;;;;;14.40;57.61;102131.47;5169515;28;20445;-49
2022/05/03 09:10:42;;;;;;;15.52;11.07;;;;;;;14.17;57.60;102091.94;5167456;28;20431;-49
2022/05/03 09:13:18;;;;;;;14.73;10.75;;;;;;;14.44;57.49;102138.19;5147435;28;20488;-47
2022/05/03 09:15:56;;;;;;;14.73;10.65;;;;;;;13.89;57.64;102064.44;5151296;28;20425;-49
2022/05/03 09:18:31;;;;;;;14.43;9.95;;;;;;;14.24;57.64;102137.38;5158556;28;20565;-46
2022/05/03 09:24:07;;;;;;;16.67;11.35;;;;;;;14.14;58.01;102157.81;5138627;28;20423;-51
2022/05/03 09:26:40;;;;;;;17.23;11.10;;;;;;;14.01;58.25;102148.28;5159143;28;20549;-50
2022/05/03 09:29:14;;;;;;;16.33;11.00;;;;;;;14.01;58.22;102152.78;5169158;28;20513;-50
2022/05/03 09:31:50;;;;;;;15.27;9.63;;;;;;;14.11;58.01;102148.28;5170050;28;21012;-48
2022/05/03 09:34:25;;;;;;;18.42;11.73;;;;;;;14.16;58.34;102155.84;5167682;28;20420;-50
2022/05/03 09:37:02;;;;;;;23.05;10.15;;;;;;;13.97;57.81;102103.56;5170897;28;20809;-48
2022/05/03 09:39:37;;;;;;;15.15;9.73;;;;;;;14.42;57.56;102156.09;5173793;28;20784;-50
2022/05/03 09:42:12;;;;;;;18.42;9.45;;;;;;;14.48;57.50;102144.88;5159611;28;20528;-53
2022/05/03 09:45:04;;;;;;;17.77;9.15;;;;;;;14.47;57.46;102153.84;5166143;28;20426;-51
2022/05/03 09:47:51;;;;;;;12.90;9.20;;;;;;;14.46;57.55;102146.84;5173688;28;20415;-49
2022/05/03 09:50:36;;;;;;;16.08;9.40;;;;;;;13.97;57.35;102069.06;5175431;28;20440;-53
2022/05/03 09:53:13;;;;;;;13.43;9.10;;;;;;;14.39;57.49;102125.31;5170506;28;21025;-47
2022/05/03 09:55:48;;;;;;;14.60;8.77;;;;;;;14.41;57.53;102159.75;5174329;28;20913;-49
2022/05/03 09:58:21;;;;;;;15.88;10.45;;;;;;;14.18;57.86;102153.88;5175423;28;20428;-49
2022/05/03 10:00:54;;;;;;;15.00;9.25;;;;;;;14.16;57.85;102162.00;5166165;28;20414;-48
2022/05/03 10:03:27;;;;;;;15.63;9.10;;;;;;;14.20;57.82;102162.56;5163854;28;20951;-45
2022/05/03 10:06:00;;;;;;;16.63;9.75;;;;;;;14.00;57.86;102133.34;5175945;28;20425;-48
2022/05/03 10:08:34;;;;;;;14.02;8.10;;;;;;;14.10;57.78;102154.59;5175367;28;20506;-49
2022/05/03 10:11:07;;;;;;;16.77;9.20;;;;;;;14.07;57.95;102162.84;5171016;28;20507;-46
2022/05/03 10:13:39;;;;;;;11.18;7.80;;;;;;;14.01;58.05;102166.06;5177804;28;20416;-49
2022/05/03 10:22:03;;;;;;;12.63;7.53;;;;;;;13.97;57.76;102172.63;5161779;28;20779;-50
2022/05/03 10:25:02;;;;;;;12.33;7.93;;;;;;;14.05;57.71;102154.16;5169753;28;20530;-49
2022/05/03 10:27:55;;;;;;;16.13;7.90;;;;;;;14.05;57.49;102154.16;5168202;28;20521;-51
2022/05/03 10:30:28;;;;;;;16.33;7.55;;;;;;;14.14;57.50;102169.25;5165387;28;20448;-52
2022/05/03 10:33:41;;;;;;;19.50;7.75;;;;;;;14.09;57.59;102171.53;5169068;28;20451;-49
2022/05/03 10:36:45;;;;;;;18.50;7.80;;;;;;;13.82;57.84;102175.69;5166954;28;20431;-54
2022/05/03 10:39:25;;;;;;;18.50;7.37;;;;;;;13.65;58.06;102173.69;5169146;28;20598;-47
2022/05/03 10:42:02;;;;;;;20.42;8.43;;;;;;;13.66;58.04;102169.22;5168025;28;20506;-48
2022/05/03 10:45:00;;;;;;;14.48;7.43;;;;;;;13.66;57.92;102161.25;5169185;28;20432;-53
2022/05/03 10:47:48;;;;;;;21.23;8.13;;;;;;;13.75;57.95;102169.25;5165435;28;20570;-48
2022/05/03 10:50:31;;;;;;;17.98;7.43;;;;;;;13.79;57.83;102168.00;5168078;28;20415;-51
2022/05/03 10:53:32;;;;;;;19.33;8.15;;;;;;;13.93;57.71;102165.91;5167657;28;20534;-51
2022/05/03 10:56:20;;;;;;;18.92;7.80;;;;;;;14.04;57.68;102168.44;5166619;28;20423;-49
2022/05/03 10:59:15;;;;;;;16.77;8.80;;;;;;;13.94;57.78;102168.44;5168911;28;20422;-49
2022/05/03 11:02:10;;;;;;;19.05;7.95;;;;;;;13.81;57.97;102170.50;5170713;28;20418;-49
2022/05/03 11:05:15;;;;;;;17.47;8.33;;;;;;;13.78;57.94;102169.00;5179514;28;20498;-46
2022/05/03 11:08:17;;;;;;;18.17;9.15;;;;;;;13.65;58.05;102157.78;5173820;28;24609;-49
2022/05/03 11:10:49;;;;;;;19.77;9.30;;;;;;;13.53;58.13;102162.38;5158317;28;20561;-51
2022/05/03 11:13:39;;;;;;;21.52;9.88;;;;;;;13.37;58.16;102149.63;5163908;28;20420;-52
2022/05/03 11:16:29;;;;;;;16.17;8.00;;;;;;;13.42;57.99;102151.88;5159919;28;20413;-52
2022/05/03 11:19:10;;;;;;;16.98;7.55;;;;;;;13.37;58.02;102146.13;5170702;28;20632;-50
2022/05/03 11:21:45;;;;;;;16.27;7.22;;;;;;;13.40;58.09;102158.28;5169877;28;20423;-49
2022/05/03 11:24:19;;;;;;;15.48;7.45;;;;;;;13.30;57.99;102143.19;5174571;28;20438;-47
2022/05/03 11:26:55;;;;;;;19.83;8.32;;;;;;;13.50;57.85;102143.22;5169068;28;20413;-51
2022/05/03 11:29:30;;;;;;;18.38;8.13;;;;;;;13.58;57.74;102152.19;5169638;28;20528;-49
2022/05/03 11:32:06;;;;;;;20.40;8.50;;;;;;;13.69;57.41;102151.22;5166993;28;20399;-47
2022/05/03 11:34:39;;;;;;;19.60;8.63;;;;;;;13.70;57.50;102138.78;5175196;28;20920;-49
2022/05/03 11:37:12;;;;;;;17.02;7.63;;;;;;;13.86;57.37;102143.53;5167351;28;20416;-46
2022/05/03 11:39:44;;;;;;;19.08;8.23;;;;;;;13.95;57.08;102124.13;5177294;28;20412;-47
2022/05/03 11:42:17;;;;;;;20.77;8.85;;;;;;;14.28;56.85;102138.78;5170745;28;20411;-53
2022/05/03 11:44:52;;;;;;;19.35;8.60;;;;;;;14.41;56.56;102139.31;5181177;28;20457;-57
2022/05/03 11:47:29;;;;;;;17.48;7.97;;;;;;;14.44;56.49;102136.38;5173083;28;20860;-54
2022/05/03 11:50:03;;;;;;;22.47;9.17;;;;;;;14.40;56.66;102131.47;5168568;28;20857;-53
2022/05/03 11:58:17;;;;;;;19.52;8.45;;;;;;;14.58;56.24;102132.44;5164371;28;20408;-48
2022/05/03 12:00:50;;;;;;;16.17;7.60;;;;;;;14.23;56.35;102104.66;5169663;28;20530;-48
2022/05/03 12:03:25;;;;;;;19.38;8.48;;;;;;;14.37;56.61;102137.06;5165775;28;20450;-49
2022/05/03 12:06:00;;;;;;;19.58;8.07;;;;;;;14.22;56.43;102134.88;5158688;28;20584;-48
2022/05/03 12:08:35;;;;;;;20.95;7.88;;;;;;;14.26;56.30;102141.56;5175219;28;20435;-46
2022/05/03 12:11:24;;;;;;;23.40;8.57;;;;;;;14.29;56.24;102135.97;5166263;28;20412;-50
2022/05/03 12:13:56;;;;;;;22.17;8.73;;;;;;;14.27;56.00;102127.28;5153529;28;20423;-50
2022/05/03 12:16:29;;;;;;;19.60;7.80;;;;;;;14.44;55.79;102139.03;5161107;28;20804;-48
2022/05/03 12:19:19;;;;;;;22.30;8.38;;;;;;;14.52;55.54;102130.34;5175569;28;21240;-51
2022/05/03 12:21:52;;;;;;;23.35;7.40;;;;;;;14.53;55.48;102142.69;5172220;28;20914;-52
2022/05/03 12:24:35;;;;;;;24.67;8.75;;;;;;;14.45;55.58;102139.84;5172691;28;20910;-49
2022/05/03 12:27:15;;;;;;;24.50;7.38;;;;;;;14.51;55.46;102140.16;5169995;28;20415;-49
2022/05/03 12:29:49;;;;;;;19.63;8.30;;;;;;;14.53;55.33;102132.03;5163127;28;20426;-51
2022/05/03 12:32:22;;;;;;;15.25;7.47;;;;;;;14.45;55.36;102135.38;5169446;28;20446;-49
2022/05/03 12:35:01;;;;;;;24.15;8.10;;;;;;;14.57;54.95;102138.75;5166888;28;20894;-47
2022/05/03 12:37:51;;;;;;;26.45;8.13;;;;;;;14.51;55.10;102134.00;5171843;28;20422;-51